sensor_id;sensor_type;location;lat;lon;timestamp;pressure;altitude;pressure_sealevel;temperature;humidity
13581;BME280;6861;46.170;7.222;2023-11-22T00:00:38;95936.00;;;8.31;61.23
13581;BME280;6861;46.170;7.222;2023-11-22T00:03:08;95946.44;;;8.31;61.28
13581;BME280;6861;46.170;7.222;2023-11-22T00:05:36;95943.47;;;8.17;61.24
13581;BME280;6861;46.170;7.222;2023-11-22T00:08:04;95944.25;;;8.18;61.88
13581;BME280;6861;46.170;7.222;2023-11-22T00:10:33;95948.97;;;8.21;61.69
13581;BME280;6861;46.170;7.222;2023-11-22T00:13:02;95951.03;;;8.19;61.80
13581;BME280;6861;46.170;7.222;2023-11-22T00:15:30;95948.34;;;8.09;62.09
13581;BME280;6861;46.170;7.222;2023-11-22T00:17:58;95956.16;;;8.09;62.45
13581;BME280;6861;46.170;7.222;2023-11-22T00:20:32;95963.94;;;8.04;62.86
13581;BME280;6861;46.170;7.222;2023-11-22T00:23:00;95964.13;;;7.97;61.96
13581;BME280;6861;46.170;7.222;2023-11-22T00:25:30;95967.78;;;7.96;62.13
13581;BME280;6861;46.170;7.222;2023-11-22T00:27:59;95962.78;;;7.89;62.74
13581;BME280;6861;46.170;7.222;2023-11-22T00:30:27;95954.91;;;7.84;62.94
13581;BME280;6861;46.170;7.222;2023-11-22T00:32:55;95963.00;;;7.88;63.40
13581;BME280;6861;46.170;7.222;2023-11-22T00:35:24;95965.63;;;7.88;63.09
13581;BME280;6861;46.170;7.222;2023-11-22T00:37:54;95959.34;;;7.84;62.71
13581;BME280;6861;46.170;7.222;2023-11-22T00:40:22;95962.72;;;7.79;63.29
13581;BME280;6861;46.170;7.222;2023-11-22T00:42:52;95961.91;;;7.79;63.58
13581;BME280;6861;46.170;7.222;2023-11-22T00:45:20;95965.81;;;7.81;63.45
13581;BME280;6861;46.170;7.222;2023-11-22T00:47:49;95962.19;;;7.82;63.22
13581;BME280;6861;46.170;7.222;2023-11-22T00:50:17;95964.25;;;7.80;62.91
13581;BME280;6861;46.170;7.222;2023-11-22T00:52:47;95978.06;;;7.81;63.09
13581;BME280;6861;46.170;7.222;2023-11-22T00:55:17;95968.41;;;7.76;63.28
13581;BME280;6861;46.170;7.222;2023-11-22T00:57:45;95970.41;;;7.69;62.67
13581;BME280;6861;46.170;7.222;2023-11-22T01:00:14;95969.59;;;7.64;63.58
13581;BME280;6861;46.170;7.222;2023-11-22T01:02:43;95971.84;;;7.55;63.39
13581;BME280;6861;46.170;7.222;2023-11-22T01:05:11;95966.56;;;7.50;63.59
13581;BME280;6861;46.170;7.222;2023-11-22T01:07:41;95968.09;;;7.46;64.22
13581;BME280;6861;46.170;7.222;2023-11-22T01:10:10;95971.13;;;7.38;64.06
13581;BME280;6861;46.170;7.222;2023-11-22T01:12:40;95970.53;;;7.31;64.30
13581;BME280;6861;46.170;7.222;2023-11-22T01:15:09;95977.50;;;7.25;65.13
13581;BME280;6861;46.170;7.222;2023-11-22T01:17:37;95971.81;;;7.28;64.63
13581;BME280;6861;46.170;7.222;2023-11-22T01:20:07;95977.91;;;7.39;63.89
13581;BME280;6861;46.170;7.222;2023-11-22T01:22:37;95974.28;;;7.40;63.84
13581;BME280;6861;46.170;7.222;2023-11-22T01:25:06;95980.56;;;7.44;64.09
13581;BME280;6861;46.170;7.222;2023-11-22T01:27:35;95974.88;;;7.47;64.28
13581;BME280;6861;46.170;7.222;2023-11-22T01:30:08;95979.59;;;7.50;63.79
13581;BME280;6861;46.170;7.222;2023-11-22T01:32:36;95973.91;;;7.53;63.55
13581;BME280;6861;46.170;7.222;2023-11-22T01:35:05;95968.16;;;7.51;64.33
13581;BME280;6861;46.170;7.222;2023-11-22T01:37:34;95961.41;;;7.55;64.11
13581;BME280;6861;46.170;7.222;2023-11-22T01:40:03;95966.72;;;7.65;64.25
13581;BME280;6861;46.170;7.222;2023-11-22T01:42:31;95965.22;;;7.69;63.09
13581;BME280;6861;46.170;7.222;2023-11-22T01:45:01;95973.13;;;7.79;63.14
13581;BME280;6861;46.170;7.222;2023-11-22T01:47:31;95971.75;;;7.72;63.50
13581;BME280;6861;46.170;7.222;2023-11-22T01:49:59;95970.31;;;7.59;64.05
13581;BME280;6861;46.170;7.222;2023-11-22T01:52:28;95957.44;;;7.47;64.25
13581;BME280;6861;46.170;7.222;2023-11-22T01:54:57;95953.44;;;7.40;63.79
13581;BME280;6861;46.170;7.222;2023-11-22T01:57:26;95968.81;;;7.41;63.98
13581;BME280;6861;46.170;7.222;2023-11-22T01:59:54;95971.63;;;7.35;63.64
13581;BME280;6861;46.170;7.222;2023-11-22T02:02:23;95984.09;;;7.33;63.56
13581;BME280;6861;46.170;7.222;2023-11-22T02:04:53;95970.78;;;7.29;64.23
13581;BME280;6861;46.170;7.222;2023-11-22T02:07:21;95980.50;;;7.39;64.04
13581;BME280;6861;46.170;7.222;2023-11-22T02:09:50;95977.41;;;7.42;64.03
13581;BME280;6861;46.170;7.222;2023-11-22T02:12:20;95983.22;;;7.49;64.01
13581;BME280;6861;46.170;7.222;2023-11-22T02:14:48;95980.13;;;7.52;63.26
13581;BME280;6861;46.170;7.222;2023-11-22T02:17:16;95973.09;;;7.52;64.10
13581;BME280;6861;46.170;7.222;2023-11-22T02:19:45;95967.59;;;7.49;64.11
13581;BME280;6861;46.170;7.222;2023-11-22T02:22:15;95982.25;;;7.55;63.78
13581;BME280;6861;46.170;7.222;2023-11-22T02:24:45;95986.47;;;7.61;64.55
13581;BME280;6861;46.170;7.222;2023-11-22T02:27:13;95976.38;;;7.65;64.01
13581;BME280;6861;46.170;7.222;2023-11-22T02:29:41;95979.31;;;7.73;63.82
13581;BME280;6861;46.170;7.222;2023-11-22T02:32:10;95967.81;;;7.69;62.87
13581;BME280;6861;46.170;7.222;2023-11-22T02:34:39;95974.53;;;7.65;63.37
13581;BME280;6861;46.170;7.222;2023-11-22T02:37:08;95980.50;;;7.61;63.82
13581;BME280;6861;46.170;7.222;2023-11-22T02:39:42;95973.22;;;7.63;63.34
13581;BME280;6861;46.170;7.222;2023-11-22T02:42:16;95981.88;;;7.68;63.97
13581;BME280;6861;46.170;7.222;2023-11-22T02:44:45;95981.38;;;7.71;63.40
13581;BME280;6861;46.170;7.222;2023-11-22T02:47:14;95982.16;;;7.72;64.33
13581;BME280;6861;46.170;7.222;2023-11-22T02:49:42;95984.53;;;7.73;64.20
13581;BME280;6861;46.170;7.222;2023-11-22T02:52:10;95988.66;;;7.69;63.61
13581;BME280;6861;46.170;7.222;2023-11-22T02:54:42;95991.19;;;7.64;63.99
13581;BME280;6861;46.170;7.222;2023-11-22T02:57:12;95994.84;;;7.63;63.53
13581;BME280;6861;46.170;7.222;2023-11-22T02:59:42;95994.84;;;7.63;63.73
13581;BME280;6861;46.170;7.222;2023-11-22T03:02:11;95994.28;;;7.61;63.93
13581;BME280;6861;46.170;7.222;2023-11-22T03:04:39;96000.53;;;7.60;64.04
13581;BME280;6861;46.170;7.222;2023-11-22T03:07:08;95995.63;;;7.64;63.55
13581;BME280;6861;46.170;7.222;2023-11-22T03:09:36;96006.88;;;7.69;63.45
13581;BME280;6861;46.170;7.222;2023-11-22T03:12:05;96007.66;;;7.70;64.26
13581;BME280;6861;46.170;7.222;2023-11-22T03:14:35;96014.69;;;7.69;63.67
13581;BME280;6861;46.170;7.222;2023-11-22T03:17:05;96025.59;;;7.66;64.54
13581;BME280;6861;46.170;7.222;2023-11-22T03:19:35;96004.16;;;7.59;63.75
13581;BME280;6861;46.170;7.222;2023-11-22T03:22:03;96006.19;;;7.52;63.26
13581;BME280;6861;46.170;7.222;2023-11-22T03:24:32;95994.00;;;7.36;64.46
13581;BME280;6861;46.170;7.222;2023-11-22T03:27:01;96006.78;;;7.37;64.36
13581;BME280;6861;46.170;7.222;2023-11-22T03:29:29;95991.78;;;7.22;64.45
13581;BME280;6861;46.170;7.222;2023-11-22T03:31:57;95996.56;;;7.31;64.91
13581;BME280;6861;46.170;7.222;2023-11-22T03:34:27;96000.78;;;7.37;64.16
13581;BME280;6861;46.170;7.222;2023-11-22T03:36:56;96002.84;;;7.35;64.48
13581;BME280;6861;46.170;7.222;2023-11-22T03:39:24;96006.59;;;7.44;64.29
13581;BME280;6861;46.170;7.222;2023-11-22T03:41:53;96003.50;;;7.47;64.29
13581;BME280;6861;46.170;7.222;2023-11-22T03:44:22;96009.56;;;7.52;64.54
13581;BME280;6861;46.170;7.222;2023-11-22T03:46:51;96003.16;;;7.38;64.01
13581;BME280;6861;46.170;7.222;2023-11-22T03:49:19;95994.84;;;7.19;64.03
13581;BME280;6861;46.170;7.222;2023-11-22T03:51:49;95992.69;;;7.11;64.45
13581;BME280;6861;46.170;7.222;2023-11-22T03:54:17;95990.19;;;7.00;64.58
13581;BME280;6861;46.170;7.222;2023-11-22T03:56:45;96001.84;;;6.97;65.37
13581;BME280;6861;46.170;7.222;2023-11-22T03:59:14;95990.66;;;6.97;64.62
13581;BME280;6861;46.170;7.222;2023-11-22T04:01:42;96010.69;;;6.96;65.24
13581;BME280;6861;46.170;7.222;2023-11-22T04:04:11;96007.13;;;6.80;65.46
13581;BME280;6861;46.170;7.222;2023-11-22T04:06:40;95996.41;;;6.77;65.29
13581;BME280;6861;46.170;7.222;2023-11-22T04:09:10;96001.94;;;6.80;66.25
13581;BME280;6861;46.170;7.222;2023-11-22T04:11:39;96004.28;;;6.82;65.77
13581;BME280;6861;46.170;7.222;2023-11-22T04:14:08;96000.50;;;6.89;65.22
13581;BME280;6861;46.170;7.222;2023-11-22T04:16:37;95999.31;;;7.02;66.04
13581;BME280;6861;46.170;7.222;2023-11-22T04:19:05;96005.94;;;7.10;65.27
13581;BME280;6861;46.170;7.222;2023-11-22T04:21:34;96011.56;;;7.23;64.66
13581;BME280;6861;46.170;7.222;2023-11-22T04:24:03;96012.00;;;7.37;64.31
13581;BME280;6861;46.170;7.222;2023-11-22T04:26:32;96021.25;;;7.50;63.93
13581;BME280;6861;46.170;7.222;2023-11-22T04:29:01;96022.34;;;7.54;63.72
13581;BME280;6861;46.170;7.222;2023-11-22T04:31:29;96023.59;;;7.51;63.49
13581;BME280;6861;46.170;7.222;2023-11-22T04:33:57;96024.09;;;7.48;63.28
13581;BME280;6861;46.170;7.222;2023-11-22T04:36:27;96022.16;;;7.39;64.00
13581;BME280;6861;46.170;7.222;2023-11-22T04:38:56;96029.38;;;7.32;64.05
13581;BME280;6861;46.170;7.222;2023-11-22T04:41:24;96029.97;;;7.39;64.32
13581;BME280;6861;46.170;7.222;2023-11-22T04:43:54;96034.22;;;7.45;63.68
13581;BME280;6861;46.170;7.222;2023-11-22T04:46:23;96018.59;;;7.45;64.27
13581;BME280;6861;46.170;7.222;2023-11-22T04:48:51;96025.38;;;7.46;64.26
13581;BME280;6861;46.170;7.222;2023-11-22T04:51:20;96022.16;;;7.39;64.40
13581;BME280;6861;46.170;7.222;2023-11-22T04:53:48;96018.28;;;7.41;64.48
13581;BME280;6861;46.170;7.222;2023-11-22T04:56:16;96024.59;;;7.45;64.19
13581;BME280;6861;46.170;7.222;2023-11-22T04:58:45;96038.50;;;7.56;64.18
13581;BME280;6861;46.170;7.222;2023-11-22T05:01:15;96032.75;;;7.54;64.11
13581;BME280;6861;46.170;7.222;2023-11-22T05:03:48;96035.19;;;7.39;64.07
13581;BME280;6861;46.170;7.222;2023-11-22T05:06:16;96027.34;;;7.17;65.04
13581;BME280;6861;46.170;7.222;2023-11-22T05:08:44;96033.03;;;7.14;64.87
13581;BME280;6861;46.170;7.222;2023-11-22T05:11:13;96036.91;;;7.11;65.74
13581;BME280;6861;46.170;7.222;2023-11-22T05:13:42;96047.56;;;7.10;65.70
13581;BME280;6861;46.170;7.222;2023-11-22T05:16:10;96047.88;;;7.13;66.10
13581;BME280;6861;46.170;7.222;2023-11-22T05:18:41;96052.34;;;7.18;64.90
13581;BME280;6861;46.170;7.222;2023-11-22T05:21:09;96046.84;;;7.14;65.14
13581;BME280;6861;46.170;7.222;2023-11-22T05:23:38;96064.09;;;7.20;66.27
13581;BME280;6861;46.170;7.222;2023-11-22T05:26:10;96058.41;;;7.23;65.16
13581;BME280;6861;46.170;7.222;2023-11-22T05:28:39;96055.88;;;7.29;65.13
13581;BME280;6861;46.170;7.222;2023-11-22T05:31:07;96063.13;;;7.27;64.91
13581;BME280;6861;46.170;7.222;2023-11-22T05:33:35;96067.72;;;7.19;65.95
13581;BME280;6861;46.170;7.222;2023-11-22T05:36:06;96056.75;;;7.17;65.62
13581;BME280;6861;46.170;7.222;2023-11-22T05:38:35;96059.38;;;7.17;64.87
13581;BME280;6861;46.170;7.222;2023-11-22T05:41:05;96063.63;;;7.23;65.41
13581;BME280;6861;46.170;7.222;2023-11-22T05:43:33;96074.22;;;7.39;64.74
13581;BME280;6861;46.170;7.222;2023-11-22T05:46:03;96070.66;;;7.45;64.69
13581;BME280;6861;46.170;7.222;2023-11-22T05:48:32;96074.41;;;7.54;65.14
13581;BME280;6861;46.170;7.222;2023-11-22T05:51:00;96081.97;;;7.55;64.33
13581;BME280;6861;46.170;7.222;2023-11-22T05:53:30;96081.00;;;7.62;64.14
13581;BME280;6861;46.170;7.222;2023-11-22T05:55:59;96083.56;;;7.56;64.60
13581;BME280;6861;46.170;7.222;2023-11-22T05:58:27;96077.56;;;7.56;64.69
13581;BME280;6861;46.170;7.222;2023-11-22T06:00:55;96087.63;;;7.69;64.24
13581;BME280;6861;46.170;7.222;2023-11-22T06:03:24;96085.06;;;7.74;64.20
13581;BME280;6861;46.170;7.222;2023-11-22T06:05:52;96092.94;;;7.79;64.83
13581;BME280;6861;46.170;7.222;2023-11-22T06:08:21;96097.44;;;7.89;64.57
13581;BME280;6861;46.170;7.222;2023-11-22T06:10:51;96104.53;;;7.94;64.39
13581;BME280;6861;46.170;7.222;2023-11-22T06:13:20;96098.25;;;7.89;64.21
13581;BME280;6861;46.170;7.222;2023-11-22T06:15:48;96106.13;;;7.95;63.75
13581;BME280;6861;46.170;7.222;2023-11-22T06:18:16;96106.91;;;7.95;64.06
13581;BME280;6861;46.170;7.222;2023-11-22T06:20:45;96128.09;;;8.04;64.91
13581;BME280;6861;46.170;7.222;2023-11-22T06:23:14;96113.78;;;7.79;63.95
13581;BME280;6861;46.170;7.222;2023-11-22T06:25:42;96124.00;;;7.64;64.63
13581;BME280;6861;46.170;7.222;2023-11-22T06:28:13;96120.50;;;7.53;65.09
13581;BME280;6861;46.170;7.222;2023-11-22T06:30:41;96115.94;;;7.44;66.06
13581;BME280;6861;46.170;7.222;2023-11-22T06:33:09;96115.31;;;7.37;65.67
13581;BME280;6861;46.170;7.222;2023-11-22T06:35:38;96121.00;;;7.34;65.35
13581;BME280;6861;46.170;7.222;2023-11-22T06:38:07;96121.00;;;7.34;65.24
13581;BME280;6861;46.170;7.222;2023-11-22T06:40:35;96122.59;;;7.35;65.20
13581;BME280;6861;46.170;7.222;2023-11-22T06:43:04;96131.72;;;7.37;65.24
13581;BME280;6861;46.170;7.222;2023-11-22T06:45:33;96128.88;;;7.39;65.57
13581;BME280;6861;46.170;7.222;2023-11-22T06:48:03;96132.09;;;7.46;66.41
13581;BME280;6861;46.170;7.222;2023-11-22T06:50:31;96134.53;;;7.52;65.39
13581;BME280;6861;46.170;7.222;2023-11-22T06:53:00;96126.56;;;7.59;65.97
13581;BME280;6861;46.170;7.222;2023-11-22T06:55:32;96126.69;;;7.69;65.21
13581;BME280;6861;46.170;7.222;2023-11-22T06:58:00;96122.09;;;7.81;65.21
13581;BME280;6861;46.170;7.222;2023-11-22T07:00:29;96125.88;;;7.90;65.12
13581;BME280;6861;46.170;7.222;2023-11-22T07:02:59;96125.97;;;8.01;64.53
13581;BME280;6861;46.170;7.222;2023-11-22T07:05:28;96130.81;;;8.14;64.54
13581;BME280;6861;46.170;7.222;2023-11-22T07:07:57;96135.59;;;8.22;64.73
13581;BME280;6861;46.170;7.222;2023-11-22T07:10:26;96150.00;;;8.30;64.20
13581;BME280;6861;46.170;7.222;2023-11-22T07:12:54;96161.22;;;8.30;63.93
13581;BME280;6861;46.170;7.222;2023-11-22T07:15:22;96162.28;;;8.07;64.64
13581;BME280;6861;46.170;7.222;2023-11-22T07:17:51;96160.28;;;7.93;65.10
13581;BME280;6861;46.170;7.222;2023-11-22T07:20:21;96164.63;;;7.87;64.73
13581;BME280;6861;46.170;7.222;2023-11-22T07:22:50;96163.84;;;7.86;65.21
13581;BME280;6861;46.170;7.222;2023-11-22T07:25:22;96178.28;;;7.94;65.05
13581;BME280;6861;46.170;7.222;2023-11-22T07:27:52;96193.72;;;8.01;65.25
13581;BME280;6861;46.170;7.222;2023-11-22T07:30:21;96190.16;;;8.07;64.96
13581;BME280;6861;46.170;7.222;2023-11-22T07:32:50;96196.53;;;8.16;64.42
13581;BME280;6861;46.170;7.222;2023-11-22T07:35:21;96193.50;;;8.24;64.16
13581;BME280;6861;46.170;7.222;2023-11-22T07:37:50;96192.66;;;8.40;64.55
13581;BME280;6861;46.170;7.222;2023-11-22T07:40:19;96183.66;;;8.53;64.00
13581;BME280;6861;46.170;7.222;2023-11-22T07:42:49;96197.06;;;8.67;63.85
13581;BME280;6861;46.170;7.222;2023-11-22T07:45:17;96198.25;;;8.81;63.40
13581;BME280;6861;46.170;7.222;2023-11-22T07:47:46;96207.41;;;8.83;63.75
13581;BME280;6861;46.170;7.222;2023-11-22T07:50:14;96213.31;;;8.74;63.65
13581;BME280;6861;46.170;7.222;2023-11-22T07:52:44;96224.25;;;8.71;63.59
13581;BME280;6861;46.170;7.222;2023-11-22T07:55:12;96224.47;;;8.64;64.01
13581;BME280;6861;46.170;7.222;2023-11-22T07:57:41;96224.34;;;8.54;64.12
13581;BME280;6861;46.170;7.222;2023-11-22T08:00:11;96230.31;;;8.49;63.92
13581;BME280;6861;46.170;7.222;2023-11-22T08:02:39;96233.03;;;8.60;63.79
13581;BME280;6861;46.170;7.222;2023-11-22T08:05:10;96227.34;;;8.68;63.83
13581;BME280;6861;46.170;7.222;2023-11-22T08:07:39;96227.63;;;8.66;63.44
13581;BME280;6861;46.170;7.222;2023-11-22T08:10:10;96223.13;;;8.62;63.62
13581;BME280;6861;46.170;7.222;2023-11-22T08:12:46;96236.41;;;8.60;64.09
13581;BME280;6861;46.170;7.222;2023-11-22T08:15:16;96233.56;;;8.62;63.78
13581;BME280;6861;46.170;7.222;2023-11-22T08:17:46;96240.13;;;8.64;63.92
13581;BME280;6861;46.170;7.222;2023-11-22T08:20:15;96237.50;;;8.64;63.47
13581;BME280;6861;46.170;7.222;2023-11-22T08:22:46;96259.69;;;8.67;63.50
13581;BME280;6861;46.170;7.222;2023-11-22T08:25:18;96250.81;;;8.68;63.64
13581;BME280;6861;46.170;7.222;2023-11-22T08:27:46;96254.03;;;8.75;63.55
13581;BME280;6861;46.170;7.222;2023-11-22T08:30:15;96257.72;;;8.79;63.10
13581;BME280;6861;46.170;7.222;2023-11-22T08:32:46;96261.47;;;8.88;63.58
13581;BME280;6861;46.170;7.222;2023-11-22T08:35:21;96267.28;;;8.95;62.86
13581;BME280;6861;46.170;7.222;2023-11-22T08:37:50;96255.81;;;8.96;62.86
13581;BME280;6861;46.170;7.222;2023-11-22T08:40:21;96254.88;;;9.07;62.57
13581;BME280;6861;46.170;7.222;2023-11-22T08:42:50;96250.72;;;9.11;63.21
13581;BME280;6861;46.170;7.222;2023-11-22T08:45:18;96257.56;;;9.17;62.66
13581;BME280;6861;46.170;7.222;2023-11-22T08:47:46;96268.66;;;9.30;62.60
13581;BME280;6861;46.170;7.222;2023-11-22T08:50:15;96270.81;;;9.38;62.34
13581;BME280;6861;46.170;7.222;2023-11-22T08:52:44;96278.19;;;9.46;62.41
13581;BME280;6861;46.170;7.222;2023-11-22T08:55:14;96273.00;;;9.56;62.17
13581;BME280;6861;46.170;7.222;2023-11-22T08:57:43;96290.25;;;9.57;61.84
13581;BME280;6861;46.170;7.222;2023-11-22T09:00:12;96290.25;;;9.57;61.83
13581;BME280;6861;46.170;7.222;2023-11-22T09:02:41;96289.22;;;9.58;61.70
13581;BME280;6861;46.170;7.222;2023-11-22T09:05:10;96295.56;;;9.67;61.75
13581;BME280;6861;46.170;7.222;2023-11-22T09:07:40;96295.63;;;9.77;61.76
13581;BME280;6861;46.170;7.222;2023-11-22T09:10:09;96301.97;;;9.86;61.03
13581;BME280;6861;46.170;7.222;2023-11-22T09:12:41;96290.97;;;9.84;61.23
13581;BME280;6861;46.170;7.222;2023-11-22T09:15:12;96283.91;;;9.85;61.22
13581;BME280;6861;46.170;7.222;2023-11-22T09:17:43;96286.31;;;9.92;61.02
13581;BME280;6861;46.170;7.222;2023-11-22T09:20:14;96286.38;;;10.02;60.93
13581;BME280;6861;46.170;7.222;2023-11-22T09:22:44;96297.13;;;10.05;60.57
13581;BME280;6861;46.170;7.222;2023-11-22T09:25:15;96287.31;;;9.85;60.92
13581;BME280;6861;46.170;7.222;2023-11-22T09:27:46;96299.78;;;9.73;61.32
13581;BME280;6861;46.170;7.222;2023-11-22T09:30:20;96300.22;;;9.60;61.50
13581;BME280;6861;46.170;7.222;2023-11-22T09:33:02;96309.81;;;9.49;61.74
13581;BME280;6861;46.170;7.222;2023-11-22T09:35:32;96314.44;;;9.42;61.72
13581;BME280;6861;46.170;7.222;2023-11-22T09:38:01;96316.94;;;9.27;62.62
13581;BME280;6861;46.170;7.222;2023-11-22T09:40:30;96317.63;;;9.17;62.48
13581;BME280;6861;46.170;7.222;2023-11-22T09:42:59;96323.81;;;9.11;62.46
13581;BME280;6861;46.170;7.222;2023-11-22T09:45:30;96317.16;;;9.26;62.52
13581;BME280;6861;46.170;7.222;2023-11-22T09:47:59;96320.97;;;9.40;62.20
13581;BME280;6861;46.170;7.222;2023-11-22T09:50:36;96321.06;;;9.50;61.90
13581;BME280;6861;46.170;7.222;2023-11-22T09:53:11;96320.59;;;9.63;61.69
13581;BME280;6861;46.170;7.222;2023-11-22T09:55:44;96321.75;;;9.77;61.40
13581;BME280;6861;46.170;7.222;2023-11-22T09:58:15;96321.34;;;9.91;61.20
13581;BME280;6861;46.170;7.222;2023-11-22T10:00:47;96322.47;;;10.05;60.83
13581;BME280;6861;46.170;7.222;2023-11-22T10:03:16;96316.53;;;10.14;60.38
13581;BME280;6861;46.170;7.222;2023-11-22T10:05:45;96323.41;;;10.21;60.13
13581;BME280;6861;46.170;7.222;2023-11-22T10:08:13;96326.28;;;10.24;60.14
13581;BME280;6861;46.170;7.222;2023-11-22T10:10:44;96318.97;;;10.26;59.80
13581;BME280;6861;46.170;7.222;2023-11-22T10:13:15;96316.63;;;10.25;59.70
13581;BME280;6861;46.170;7.222;2023-11-22T10:15:43;96322.53;;;10.15;59.79
13581;BME280;6861;46.170;7.222;2023-11-22T10:18:13;96310.44;;;10.04;59.91
13581;BME280;6861;46.170;7.222;2023-11-22T10:20:42;96320.06;;;9.93;60.04
13581;BME280;6861;46.170;7.222;2023-11-22T10:23:16;96309.78;;;9.81;60.45
13581;BME280;6861;46.170;7.222;2023-11-22T10:25:47;96305.50;;;9.70;60.37
13581;BME280;6861;46.170;7.222;2023-11-22T10:28:16;96295.59;;;9.72;60.21
13581;BME280;6861;46.170;7.222;2023-11-22T10:30:45;96291.44;;;9.76;60.46
13581;BME280;6861;46.170;7.222;2023-11-22T10:33:16;96289.91;;;9.80;60.08
13581;BME280;6861;46.170;7.222;2023-11-22T10:35:47;96293.34;;;9.86;59.81
13581;BME280;6861;46.170;7.222;2023-11-22T10:38:16;96303.63;;;9.98;59.48
13581;BME280;6861;46.170;7.222;2023-11-22T10:40:45;96296.31;;;10.00;59.24
13581;BME280;6861;46.170;7.222;2023-11-22T10:43:15;96291.31;;;9.98;59.10
13581;BME280;6861;46.170;7.222;2023-11-22T10:45:45;96283.25;;;10.05;59.03
13581;BME280;6861;46.170;7.222;2023-11-22T10:48:17;96283.16;;;11.09;57.41
13581;BME280;6861;46.170;7.222;2023-11-22T10:50:47;96272.75;;;15.81;48.92
13581;BME280;6861;46.170;7.222;2023-11-22T10:53:20;96269.06;;;21.54;39.38
13581;BME280;6861;46.170;7.222;2023-11-22T10:55:56;96265.91;;;26.17;33.48
13581;BME280;6861;46.170;7.222;2023-11-22T10:58:33;96257.91;;;29.54;29.02
13581;BME280;6861;46.170;7.222;2023-11-22T11:01:05;96253.66;;;32.07;25.53
13581;BME280;6861;46.170;7.222;2023-11-22T11:03:37;96243.72;;;34.12;23.11
13581;BME280;6861;46.170;7.222;2023-11-22T11:06:11;96240.03;;;35.71;21.55
13581;BME280;6861;46.170;7.222;2023-11-22T11:08:43;96241.41;;;36.48;20.16
13581;BME280;6861;46.170;7.222;2023-11-22T11:11:13;96244.66;;;36.43;20.07
13581;BME280;6861;46.170;7.222;2023-11-22T11:13:42;96238.97;;;36.37;19.54
13581;BME280;6861;46.170;7.222;2023-11-22T11:16:11;96243.72;;;36.17;19.21
13581;BME280;6861;46.170;7.222;2023-11-22T11:18:41;96245.41;;;36.11;18.67
13581;BME280;6861;46.170;7.222;2023-11-22T11:21:10;96239.94;;;36.43;18.64
13581;BME280;6861;46.170;7.222;2023-11-22T11:23:40;96233.63;;;36.79;18.05
13581;BME280;6861;46.170;7.222;2023-11-22T11:26:15;96234.00;;;36.94;17.68
13581;BME280;6861;46.170;7.222;2023-11-22T11:28:46;96227.44;;;36.46;17.08
13581;BME280;6861;46.170;7.222;2023-11-22T11:31:15;96226.16;;;36.18;17.45
13581;BME280;6861;46.170;7.222;2023-11-22T11:33:56;96237.50;;;35.25;17.76
13581;BME280;6861;46.170;7.222;2023-11-22T11:36:28;96228.59;;;32.51;20.17
13581;BME280;6861;46.170;7.222;2023-11-22T11:39:00;96225.31;;;28.97;23.88
13581;BME280;6861;46.170;7.222;2023-11-22T11:41:32;96229.31;;;25.82;26.53
13581;BME280;6861;46.170;7.222;2023-11-22T11:44:02;96219.34;;;23.44;29.26
13581;BME280;6861;46.170;7.222;2023-11-22T11:46:31;96227.50;;;21.41;30.65
13581;BME280;6861;46.170;7.222;2023-11-22T11:49:06;96224.41;;;19.71;32.43
13581;BME280;6861;46.170;7.222;2023-11-22T11:51:35;96225.13;;;18.42;33.92
13581;BME280;6861;46.170;7.222;2023-11-22T11:54:05;96230.88;;;17.42;35.16
13581;BME280;6861;46.170;7.222;2023-11-22T11:56:36;96227.22;;;16.71;36.48
13581;BME280;6861;46.170;7.222;2023-11-22T11:59:06;96224.50;;;16.21;37.01
13581;BME280;6861;46.170;7.222;2023-11-22T12:01:34;96233.34;;;15.70;37.47
13581;BME280;6861;46.170;7.222;2023-11-22T12:04:04;96243.47;;;15.31;38.29
13581;BME280;6861;46.170;7.222;2023-11-22T12:06:33;96249.06;;;14.92;38.64
13581;BME280;6861;46.170;7.222;2023-11-22T12:09:03;96249.63;;;14.70;39.08
13581;BME280;6861;46.170;7.222;2023-11-22T12:11:32;96248.41;;;14.38;40.00
13581;BME280;6861;46.170;7.222;2023-11-22T12:14:00;96253.34;;;14.21;40.45
13581;BME280;6861;46.170;7.222;2023-11-22T12:16:30;96249.84;;;14.02;40.64
13581;BME280;6861;46.170;7.222;2023-11-22T12:19:00;96250.59;;;13.84;40.79
13581;BME280;6861;46.170;7.222;2023-11-22T12:21:31;96256.03;;;13.63;41.83
13581;BME280;6861;46.170;7.222;2023-11-22T12:24:00;96256.72;;;13.45;41.42
13581;BME280;6861;46.170;7.222;2023-11-22T12:26:32;96260.50;;;13.29;41.79
13581;BME280;6861;46.170;7.222;2023-11-22T12:29:01;96261.31;;;13.24;42.49
13581;BME280;6861;46.170;7.222;2023-11-22T12:31:32;96265.00;;;13.23;41.41
13581;BME280;6861;46.170;7.222;2023-11-22T12:34:04;96255.28;;;13.24;42.10
13581;BME280;6861;46.170;7.222;2023-11-22T12:36:35;96259.72;;;13.28;42.32
13581;BME280;6861;46.170;7.222;2023-11-22T12:39:07;96251.53;;;13.35;42.63
13581;BME280;6861;46.170;7.222;2023-11-22T12:41:44;96256.72;;;13.45;42.45
13581;BME280;6861;46.170;7.222;2023-11-22T12:44:24;96246.94;;;13.51;41.52
13581;BME280;6861;46.170;7.222;2023-11-22T12:46:52;96245.84;;;13.57;41.90
13581;BME280;6861;46.170;7.222;2023-11-22T12:49:25;96247.13;;;13.59;41.86
13581;BME280;6861;46.170;7.222;2023-11-22T12:51:56;96247.34;;;13.63;42.56
13581;BME280;6861;46.170;7.222;2023-11-22T12:54:25;96243.66;;;13.64;41.81
13581;BME280;6861;46.170;7.222;2023-11-22T12:56:53;96248.13;;;13.63;42.70
13581;BME280;6861;46.170;7.222;2023-11-22T12:59:26;96232.59;;;13.67;42.87
13581;BME280;6861;46.170;7.222;2023-11-22T13:01:58;96238.09;;;13.70;42.90
13581;BME280;6861;46.170;7.222;2023-11-22T13:04:28;96232.28;;;13.73;43.12
13581;BME280;6861;46.170;7.222;2023-11-22T13:06:59;96235.69;;;13.74;42.81
13581;BME280;6861;46.170;7.222;2023-11-22T13:09:27;96229.66;;;13.73;42.78
13581;BME280;6861;46.170;7.222;2023-11-22T13:11:59;96216.50;;;13.73;43.23
13581;BME280;6861;46.170;7.222;2023-11-22T13:14:27;96226.47;;;13.76;42.56
13581;BME280;6861;46.170;7.222;2023-11-22T13:17:00;96231.16;;;13.80;43.11
13581;BME280;6861;46.170;7.222;2023-11-22T13:19:28;96244.31;;;13.80;42.67
13581;BME280;6861;46.170;7.222;2023-11-22T13:21:56;96240.63;;;13.81;42.32
13581;BME280;6861;46.170;7.222;2023-11-22T13:24:26;96248.50;;;13.81;42.46
13581;BME280;6861;46.170;7.222;2023-11-22T13:26:54;96242.47;;;13.80;42.39
13581;BME280;6861;46.170;7.222;2023-11-22T13:29:22;96250.63;;;13.78;42.73
13581;BME280;6861;46.170;7.222;2023-11-22T13:31:51;96248.00;;;13.78;43.47